Time;durP1;ratioP1;P1;durP2;ratioP2;P2;SDS_P1;SDS_P2;PMS_P1;PMS_P2;Temp;Humidity;BMP_temperature;BMP_pressure;BME280_temperature;BME280_humidity;BME280_pressure;Samples;Min_cycle;Max_cycle;Signal;HPM_P1;HPM_P2
2021/01/15 00:00:59;;;;;;;6.85;6.15;;;7.90;99.90;;;;;;4975400;28;20209;-81
2021/01/15 00:03:26;;;;;;;7.03;6.22;;;7.80;99.90;;;;;;4975336;28;20201;-81
2021/01/15 00:05:52;;;;;;;6.20;5.60;;;7.80;99.90;;;;;;4975291;28;20197;-81
2021/01/15 00:08:19;;;;;;;7.30;5.43;;;7.70;99.70;;;;;;4975125;28;20210;-81
2021/01/15 00:10:45;;;;;;;6.53;5.82;;;7.50;99.50;;;;;;4975151;28;20293;-81
2021/01/15 00:13:11;;;;;;;8.77;6.43;;;7.50;99.60;;;;;;4975179;28;20209;-81
2021/01/15 00:15:38;;;;;;;6.22;5.63;;;7.60;99.80;;;;;;4974972;28;20209;-81
2021/01/15 00:18:04;;;;;;;8.85;7.40;;;7.60;99.80;;;;;;4974922;28;20210;-81
2021/01/15 00:20:31;;;;;;;11.20;7.20;;;7.60;99.70;;;;;;4974879;28;20252;-81
2021/01/15 00:22:58;;;;;;;6.40;5.80;;;7.50;99.50;;;;;;4974999;28;20198;-81
2021/01/15 00:25:24;;;;;;;9.73;5.85;;;7.50;99.50;;;;;;4974923;28;20201;-81
2021/01/15 00:27:50;;;;;;;7.95;6.40;;;7.40;99.50;;;;;;4974733;28;20209;-81
2021/01/15 00:30:17;;;;;;;7.28;6.15;;;7.40;99.60;;;;;;4974788;28;20756;-81
2021/01/15 00:32:43;;;;;;;9.35;6.88;;;7.40;99.60;;;;;;4974805;28;20201;-81
2021/01/15 00:35:10;;;;;;;10.75;7.35;;;7.50;99.70;;;;;;4975060;28;20597;-81
2021/01/15 00:37:39;;;;;;;11.40;6.50;;;7.50;99.60;;;;;;4974721;28;20209;-81
2021/01/15 00:40:06;;;;;;;7.93;7.00;;;7.40;99.50;;;;;;4974590;28;20229;-81
2021/01/15 00:42:33;;;;;;;8.27;6.13;;;7.50;99.60;;;;;;4974479;28;20652;-81
2021/01/15 00:44:59;;;;;;;8.40;6.00;;;7.40;99.50;;;;;;4974438;28;20229;-81
2021/01/15 00:47:25;;;;;;;12.65;6.15;;;7.50;99.70;;;;;;4974587;28;20612;-81
2021/01/15 00:49:51;;;;;;;6.72;6.00;;;7.50;99.90;;;;;;4974611;28;20202;-81
2021/01/15 00:52:18;;;;;;;7.38;6.30;;;7.60;99.90;;;;;;4974567;28;20210;-81
2021/01/15 00:54:45;;;;;;;9.27;6.90;;;7.50;99.90;;;;;;4974454;28;20201;-81
2021/01/15 00:57:11;;;;;;;7.90;6.70;;;7.60;99.90;;;;;;4974575;28;20209;-81
2021/01/15 00:59:37;;;;;;;9.55;7.88;;;7.60;99.90;;;;;;4974328;28;20236;-81
2021/01/15 01:02:04;;;;;;;9.88;7.00;;;7.60;99.80;;;;;;4974483;28;20197;-81
2021/01/15 01:04:30;;;;;;;8.23;6.22;;;7.60;99.80;;;;;;4974545;28;20209;-81
2021/01/15 01:06:57;;;;;;;12.85;7.90;;;7.60;99.80;;;;;;4974366;28;20200;-81
2021/01/15 01:09:24;;;;;;;9.32;6.55;;;7.70;99.90;;;;;;4974519;28;20237;-80
2021/01/15 01:11:51;;;;;;;7.70;6.88;;;7.70;99.90;;;;;;4974451;28;20204;-81
2021/01/15 01:14:18;;;;;;;8.20;6.35;;;7.70;99.90;;;;;;4974331;28;20216;-81
2021/01/15 01:16:44;;;;;;;8.73;7.28;;;7.60;99.90;;;;;;4974228;28;20205;-81
2021/01/15 01:19:10;;;;;;;8.50;6.93;;;7.60;99.90;;;;;;4974148;28;20789;-81
2021/01/15 01:21:37;;;;;;;9.30;7.13;;;7.50;99.80;;;;;;4974379;28;20205;-81
2021/01/15 01:24:04;;;;;;;8.48;6.85;;;7.50;99.90;;;;;;4974206;28;20591;-81
2021/01/15 01:26:30;;;;;;;10.02;7.47;;;7.50;99.90;;;;;;4974199;28;20561;-81
2021/01/15 01:28:57;;;;;;;7.60;6.88;;;7.50;99.90;;;;;;4974183;28;20236;-81
2021/01/15 01:31:23;;;;;;;8.13;6.57;;;7.50;99.90;;;;;;4974103;28;20206;-80
2021/01/15 01:33:50;;;;;;;13.65;8.13;;;7.60;99.90;;;;;;4976985;28;20198;-81
2021/01/15 01:36:16;;;;;;;9.13;7.53;;;7.60;99.80;;;;;;4977941;28;20197;-81
2021/01/15 01:38:42;;;;;;;9.63;7.60;;;7.50;99.80;;;;;;4977883;28;20236;-81
2021/01/15 01:41:09;;;;;;;8.23;7.32;;;7.50;99.80;;;;;;4977892;28;20205;-81
2021/01/15 01:43:35;;;;;;;12.13;8.60;;;7.50;99.80;;;;;;4977889;28;20205;-81
2021/01/15 01:46:05;;;;;;;17.55;9.20;;;7.50;99.80;;;;;;4977761;28;20234;-81
2021/01/15 01:48:32;;;;;;;11.48;8.48;;;7.50;99.70;;;;;;4977798;28;20201;-81
2021/01/15 01:50:59;;;;;;;11.65;7.80;;;7.60;99.80;;;;;;4977727;28;20193;-81
2021/01/15 01:53:30;;;;;;;14.35;8.20;;;7.60;99.60;;;;;;4977839;28;20201;-80
2021/01/15 01:55:57;;;;;;;14.27;8.35;;;7.60;99.50;;;;;;4977667;28;20198;-81
2021/01/15 01:58:24;;;;;;;9.02;6.75;;;7.50;99.40;;;;;;4977406;28;20275;-81
2021/01/15 02:00:58;;;;;;;10.02;8.05;;;7.30;99.20;;;;;;4977493;28;20206;-81
2021/01/15 02:03:25;;;;;;;10.27;7.75;;;7.40;99.40;;;;;;4977491;28;20347;-81
2021/01/15 02:05:52;;;;;;;9.25;7.65;;;7.30;99.50;;;;;;4977441;28;20204;-81
2021/01/15 02:08:19;;;;;;;10.27;8.52;;;7.30;99.90;;;;;;4977705;28;20198;-80
2021/01/15 02:10:51;;;;;;;12.00;9.23;;;7.30;99.90;;;;;;4977540;28;20198;-81
2021/01/15 02:13:35;;;;;;;12.50;9.80;;;7.20;99.90;;;;;;4977441;28;20197;-81
2021/01/15 02:16:03;;;;;;;12.27;9.80;;;7.20;99.90;;;;;;4977245;28;20201;-81
2021/01/15 02:18:34;;;;;;;16.00;10.65;;;7.20;99.90;;;;;;4977301;28;20311;-81
2021/01/15 02:21:45;;;;;;;12.13;10.07;;;7.20;99.90;;;;;;4977400;28;20194;-81
2021/01/15 02:24:24;;;;;;;12.63;8.90;;;7.30;99.90;;;;;;4898535;29;20204;-81
2021/01/15 02:27:19;;;;;;;9.90;8.90;;;7.20;99.90;;;;;;4965152;28;20205;-81
2021/01/15 02:30:10;;;;;;;9.52;8.43;;;7.20;99.90;;;;;;4970440;28;20218;-81
2021/01/15 02:32:43;;;;;;;13.35;9.80;;;7.20;99.90;;;;;;4976980;28;20194;-81
2021/01/15 02:35:24;;;;;;;12.13;9.70;;;7.20;99.90;;;;;;4976977;28;20256;-81
2021/01/15 02:38:22;;;;;;;13.65;10.68;;;7.20;99.90;;;;;;4977098;28;20205;-81
2021/01/15 02:41:05;;;;;;;14.02;10.60;;;7.20;99.90;;;;;;4977004;28;20198;-81
2021/01/15 02:43:34;;;;;;;13.00;11.18;;;7.20;99.90;;;;;;4976683;28;20201;-81
2021/01/15 02:46:03;;;;;;;15.43;11.88;;;7.20;99.90;;;;;;4975693;28;20723;-81
2021/01/15 02:48:31;;;;;;;13.63;11.55;;;7.30;99.90;;;;;;4976625;28;20256;-81
2021/01/15 02:50:59;;;;;;;14.00;10.77;;;7.20;99.90;;;;;;4976864;28;20233;-81
2021/01/15 02:53:26;;;;;;;14.60;12.35;;;7.30;99.90;;;;;;4976663;28;20260;-81
2021/01/15 02:55:52;;;;;;;14.40;11.73;;;7.30;99.90;;;;;;4976693;28;20206;-81
2021/01/15 02:58:18;;;;;;;17.33;13.20;;;7.30;99.90;;;;;;4976406;28;20582;-81
2021/01/15 03:00:45;;;;;;;16.70;13.40;;;7.30;99.90;;;;;;4976583;28;20205;-81
2021/01/15 03:03:17;;;;;;;13.60;10.90;;;7.40;99.90;;;;;;4976362;28;20206;-80
2021/01/15 03:05:50;;;;;;;15.75;11.95;;;7.30;99.90;;;;;;4976326;28;20201;-81
2021/01/15 03:08:19;;;;;;;15.93;11.43;;;7.40;99.90;;;;;;4976529;28;20198;-81
2021/01/15 03:10:47;;;;;;;16.38;12.35;;;7.20;99.90;;;;;;4976361;28;20205;-81
2021/01/15 03:13:15;;;;;;;17.83;12.65;;;7.20;99.90;;;;;;4976305;28;20202;-81
2021/01/15 03:15:42;;;;;;;15.68;12.10;;;7.20;99.90;;;;;;4976212;28;20198;-81
2021/01/15 03:18:10;;;;;;;16.27;11.75;;;7.20;99.90;;;;;;4976118;28;20198;-81
2021/01/15 03:20:37;;;;;;;13.82;11.55;;;7.20;99.90;;;;;;4976259;28;20557;-81
2021/01/15 03:23:04;;;;;;;17.10;13.75;;;7.20;99.90;;;;;;4976183;28;20588;-81
2021/01/15 03:25:31;;;;;;;17.00;12.15;;;7.20;99.90;;;;;;4976029;28;20206;-81
2021/01/15 03:27:57;;;;;;;15.55;12.45;;;7.20;99.90;;;;;;4975979;28;20779;-81
2021/01/15 03:30:26;;;;;;;16.63;12.43;;;7.20;99.90;;;;;;4976081;28;20228;-81
2021/01/15 03:32:54;;;;;;;14.00;11.48;;;7.30;99.90;;;;;;4975804;28;20202;-81
2021/01/15 03:35:23;;;;;;;12.32;11.02;;;7.40;99.90;;;;;;4975808;28;20209;-81
2021/01/15 03:37:56;;;;;;;13.80;10.98;;;7.30;99.90;;;;;;4975939;28;20205;-81
2021/01/15 03:40:24;;;;;;;15.55;11.57;;;7.20;99.90;;;;;;4975656;28;20229;-81
2021/01/15 03:42:51;;;;;;;12.20;10.80;;;7.20;99.90;;;;;;4975772;28;20194;-81
2021/01/15 03:45:17;;;;;;;14.68;11.77;;;7.20;99.90;;;;;;4975319;28;20246;-81
2021/01/15 03:47:43;;;;;;;17.80;12.50;;;7.30;99.90;;;;;;4975431;28;20211;-81
2021/01/15 03:50:10;;;;;;;15.77;12.55;;;7.10;99.90;;;;;;4975624;28;20198;-81
2021/01/15 03:52:37;;;;;;;15.57;11.40;;;6.90;99.90;;;;;;4975547;28;20205;-80
2021/01/15 03:55:04;;;;;;;17.17;12.73;;;7.00;99.90;;;;;;4975440;28;20197;-81
2021/01/15 03:57:31;;;;;;;15.50;12.82;;;7.00;99.90;;;;;;4975376;28;20598;-81
2021/01/15 03:59:57;;;;;;;15.68;13.18;;;7.00;99.90;;;;;;4975258;28;20230;-81
2021/01/15 04:02:23;;;;;;;15.90;12.32;;;7.00;99.90;;;;;;4975454;28;20200;-81
2021/01/15 04:04:50;;;;;;;16.85;12.40;;;7.00;99.90;;;;;;4975268;28;20209;-81
2021/01/15 04:07:16;;;;;;;17.33;12.95;;;7.00;99.90;;;;;;4975254;28;20206;-80
2021/01/15 04:09:43;;;;;;;16.88;12.80;;;6.90;99.90;;;;;;4975366;28;20198;-80
2021/01/15 04:12:10;;;;;;;19.67;12.85;;;6.90;99.90;;;;;;4975410;28;20205;-81
2021/01/15 04:14:37;;;;;;;20.88;13.15;;;7.00;99.90;;;;;;4975168;28;20205;-81
2021/01/15 04:17:03;;;;;;;18.80;14.20;;;7.10;99.90;;;;;;4975033;28;20672;-81
2021/01/15 04:19:30;;;;;;;15.10;12.30;;;7.10;99.90;;;;;;4974863;28;20718;-81
2021/01/15 04:21:56;;;;;;;15.48;11.90;;;7.20;99.90;;;;;;4975150;28;20198;-81
2021/01/15 04:24:23;;;;;;;16.73;13.45;;;7.30;99.90;;;;;;4975023;28;20553;-81
2021/01/15 04:26:52;;;;;;;16.00;12.50;;;7.20;99.90;;;;;;4974706;28;20202;-81
2021/01/15 04:29:19;;;;;;;17.45;12.95;;;7.20;99.90;;;;;;4974974;28;20688;-81
2021/01/15 04:31:46;;;;;;;18.83;13.57;;;7.20;99.90;;;;;;4974828;28;20578;-81
2021/01/15 04:34:12;;;;;;;19.00;13.70;;;7.20;99.90;;;;;;4974800;28;20200;-81
2021/01/15 04:36:39;;;;;;;15.77;12.88;;;7.20;99.90;;;;;;4974737;28;20664;-81
2021/01/15 04:39:05;;;;;;;16.73;12.95;;;7.20;99.90;;;;;;4974785;28;20225;-81
2021/01/15 04:41:32;;;;;;;13.30;11.30;;;7.20;99.90;;;;;;4974675;28;20214;-81
2021/01/15 04:43:59;;;;;;;18.17;14.13;;;7.10;99.90;;;;;;4974803;28;20204;-81
2021/01/15 04:46:27;;;;;;;17.92;13.25;;;7.10;99.90;;;;;;4974382;28;20244;-81
2021/01/15 04:48:55;;;;;;;19.80;13.13;;;7.10;99.90;;;;;;4974657;28;20653;-81
2021/01/15 04:51:28;;;;;;;16.48;13.48;;;7.00;99.90;;;;;;4974801;28;20197;-81
2021/01/15 04:54:01;;;;;;;18.15;12.82;;;7.10;99.90;;;;;;4974662;28;20200;-81
2021/01/15 04:56:36;;;;;;;16.42;12.35;;;7.10;99.90;;;;;;4974666;28;20212;-81
2021/01/15 04:59:03;;;;;;;15.77;13.10;;;7.20;99.90;;;;;;4974275;28;20252;-81
2021/01/15 05:01:40;;;;;;;15.02;13.43;;;7.20;99.90;;;;;;4974562;28;20193;-81
2021/01/15 05:04:09;;;;;;;19.25;14.85;;;7.20;99.90;;;;;;4974377;28;20229;-81
2021/01/15 05:06:46;;;;;;;17.02;13.80;;;7.20;99.90;;;;;;4974343;28;20213;-81
2021/01/15 05:09:14;;;;;;;16.13;13.70;;;7.10;99.90;;;;;;4974083;28;20616;-81
2021/01/15 05:11:42;;;;;;;16.25;13.52;;;7.10;99.90;;;;;;4974502;28;20200;-81
2021/01/15 05:14:10;;;;;;;22.88;14.48;;;7.00;99.90;;;;;;4974404;28;20201;-81
2021/01/15 05:16:38;;;;;;;18.40;12.75;;;7.00;99.90;;;;;;4974304;28;20206;-81
2021/01/15 05:19:05;;;;;;;20.23;15.07;;;6.80;99.90;;;;;;4974262;28;20230;-81
2021/01/15 05:21:34;;;;;;;19.35;14.60;;;7.00;99.90;;;;;;4974301;28;20205;-81
2021/01/15 05:24:00;;;;;;;16.40;13.13;;;7.00;99.90;;;;;;4974153;28;20205;-81
2021/01/15 05:26:27;;;;;;;20.00;16.33;;;7.10;99.90;;;;;;4974157;28;20658;-81
2021/01/15 05:28:54;;;;;;;19.90;15.88;;;7.10;99.90;;;;;;4974273;28;20234;-81
2021/01/15 05:31:20;;;;;;;17.35;14.18;;;7.10;99.90;;;;;;4974359;28;20198;-81
2021/01/15 05:34:05;;;;;;;19.25;14.88;;;7.00;99.90;;;;;;4980351;28;20189;-80
2021/01/15 05:36:34;;;;;;;19.73;14.25;;;6.90;99.90;;;;;;4988618;28;20211;-80
2021/01/15 05:39:11;;;;;;;19.65;15.05;;;7.00;99.90;;;;;;4993417;28;20577;-81
2021/01/15 05:41:39;;;;;;;19.10;14.68;;;7.00;99.90;;;;;;4993458;28;20208;-81
2021/01/15 05:44:06;;;;;;;24.52;15.05;;;7.00;99.90;;;;;;4993442;28;20197;-81
2021/01/15 05:46:32;;;;;;;18.30;15.45;;;7.00;99.90;;;;;;4987171;28;20591;-81
2021/01/15 05:49:09;;;;;;;19.50;15.38;;;6.90;99.90;;;;;;4974014;28;20198;-81
2021/01/15 05:51:37;;;;;;;15.80;13.38;;;7.00;99.90;;;;;;4974082;28;20204;-81
2021/01/15 05:54:05;;;;;;;19.30;15.43;;;7.00;99.90;;;;;;4974225;28;20212;-81
2021/01/15 05:56:42;;;;;;;20.80;15.38;;;7.00;99.90;;;;;;4973915;28;20551;-81
2021/01/15 05:59:11;;;;;;;17.25;14.70;;;6.80;99.90;;;;;;4973796;28;20237;-81
2021/01/15 06:01:45;;;;;;;22.30;16.10;;;6.80;99.90;;;;;;4973944;28;20193;-81
2021/01/15 06:04:12;;;;;;;18.58;13.55;;;6.70;99.90;;;;;;4973971;28;20602;-81
2021/01/15 06:06:40;;;;;;;21.00;14.23;;;6.60;99.90;;;;;;4973982;28;20197;-81
2021/01/15 06:09:08;;;;;;;22.30;13.23;;;6.60;99.90;;;;;;4973906;28;20208;-81
2021/01/15 06:11:36;;;;;;;16.73;13.23;;;6.60;99.90;;;;;;4974798;28;20610;-80
2021/01/15 06:14:03;;;;;;;19.77;15.10;;;6.70;99.90;;;;;;4990462;28;20200;-81
2021/01/15 06:16:29;;;;;;;22.15;15.55;;;6.70;99.90;;;;;;4993189;28;20193;-81
2021/01/15 06:18:59;;;;;;;18.60;13.25;;;6.70;99.90;;;;;;4994201;28;20216;-81
2021/01/15 06:21:30;;;;;;;19.33;13.65;;;6.80;99.90;;;;;;4996679;28;20534;-81
2021/01/15 06:24:02;;;;;;;17.98;13.82;;;6.90;99.90;;;;;;4996716;28;20255;-81
2021/01/15 06:26:35;;;;;;;18.83;13.55;;;6.90;99.90;;;;;;4996434;28;20290;-81
2021/01/15 06:29:09;;;;;;;17.83;13.32;;;6.90;99.90;;;;;;4996491;28;20232;-81
2021/01/15 06:31:49;;;;;;;17.55;13.63;;;6.80;99.90;;;;;;4996530;28;20200;-81
2021/01/15 06:34:17;;;;;;;19.25;13.73;;;6.90;99.90;;;;;;4996505;28;20220;-81
2021/01/15 06:36:52;;;;;;;19.73;13.90;;;6.80;99.90;;;;;;4996363;28;20205;-81
2021/01/15 06:39:20;;;;;;;21.52;14.25;;;6.90;99.90;;;;;;4996292;28;20278;-81
2021/01/15 06:41:58;;;;;;;17.40;15.07;;;6.80;99.90;;;;;;4996248;28;20193;-81
2021/01/15 06:44:26;;;;;;;26.55;17.17;;;6.90;99.90;;;;;;4996199;28;20246;-81
2021/01/15 06:46:54;;;;;;;31.05;23.33;;;6.90;99.90;;;;;;4996321;28;20526;-81
2021/01/15 06:49:29;;;;;;;21.17;16.60;;;7.00;99.90;;;;;;4993113;28;20193;-81
2021/01/15 06:51:57;;;;;;;21.00;15.10;;;7.10;99.90;;;;;;4995385;28;20200;-81
2021/01/15 06:54:26;;;;;;;25.58;16.80;;;7.10;99.90;;;;;;4994786;28;20208;-81
2021/01/15 06:57:10;;;;;;;23.77;15.60;;;7.10;99.90;;;;;;4995195;28;20536;-81
2021/01/15 06:59:38;;;;;;;19.90;14.77;;;7.10;99.90;;;;;;4995941;28;20244;-81
2021/01/15 07:02:29;;;;;;;20.05;14.30;;;7.10;99.90;;;;;;4996121;28;20197;-81
2021/01/15 07:05:01;;;;;;;18.38;13.88;;;7.20;99.90;;;;;;4995848;28;20605;-81
2021/01/15 07:07:31;;;;;;;22.67;15.77;;;7.10;99.90;;;;;;4995943;28;20201;-81
2021/01/15 07:10:01;;;;;;;19.80;14.95;;;7.20;99.90;;;;;;4995770;28;20203;-81
2021/01/15 07:12:28;;;;;;;17.52;14.30;;;7.10;99.90;;;;;;4995777;28;20624;-81
2021/01/15 07:14:56;;;;;;;21.52;14.27;;;7.10;99.90;;;;;;4995595;28;20197;-81
2021/01/15 07:17:29;;;;;;;18.67;14.30;;;7.10;99.90;;;;;;4995565;28;20823;-81
2021/01/15 07:20:06;;;;;;;19.80;14.25;;;7.00;99.90;;;;;;4995669;28;20225;-81
2021/01/15 07:22:37;;;;;;;20.30;14.65;;;7.10;99.90;;;;;;4995562;28;20263;-81
2021/01/15 07:25:06;;;;;;;18.77;15.07;;;7.10;99.90;;;;;;4995437;28;20255;-80
2021/01/15 07:27:33;;;;;;;19.10;14.40;;;7.10;99.90;;;;;;4995505;28;20243;-82
2021/01/15 07:30:00;;;;;;;21.80;16.63;;;7.10;99.90;;;;;;4995033;28;20234;-82
2021/01/15 07:32:29;;;;;;;20.60;14.90;;;7.20;99.90;;;;;;4995064;28;20205;-83
2021/01/15 07:34:59;;;;;;;23.58;17.27;;;7.10;99.90;;;;;;4995155;28;20200;-82
2021/01/15 07:37:28;;;;;;;28.15;16.00;;;7.20;99.90;;;;;;4995206;28;20201;-81
2021/01/15 07:40:03;;;;;;;19.92;16.52;;;7.00;99.90;;;;;;4995162;28;20550;-82
2021/01/15 07:42:54;;;;;;;18.50;15.38;;;6.90;99.90;;;;;;4995183;28;20255;-82
2021/01/15 07:45:51;;;;;;;19.83;15.60;;;6.80;99.90;;;;;;4994877;28;20700;-82
2021/01/15 07:48:19;;;;;;;19.65;15.10;;;6.70;99.90;;;;;;4995124;28;20201;-82
2021/01/15 07:50:47;;;;;;;20.30;15.82;;;6.60;99.90;;;;;;4995068;28;20225;-81
2021/01/15 07:53:18;;;;;;;27.02;16.85;;;6.60;99.90;;;;;;4995278;28;20197;-81
2021/01/15 07:55:46;;;;;;;20.92;15.63;;;6.60;99.90;;;;;;4995022;28;20262;-80
2021/01/15 07:58:14;;;;;;;23.30;14.90;;;6.50;99.90;;;;;;4995117;28;20221;-82
2021/01/15 08:00:41;;;;;;;23.48;18.25;;;6.50;99.90;;;;;;4994907;28;20341;-83
2021/01/15 08:03:08;;;;;;;25.33;17.42;;;6.40;99.90;;;;;;4995021;28;20205;-83
2021/01/15 08:05:34;;;;;;;22.48;16.25;;;6.30;99.90;;;;;;4994717;28;20568;-83
2021/01/15 08:08:08;;;;;;;23.58;18.33;;;6.40;99.90;;;;;;4994946;28;20201;-84
2021/01/15 08:10:44;;;;;;;19.40;15.10;;;6.40;99.90;;;;;;4994909;28;20201;-84
2021/01/15 08:13:17;;;;;;;19.80;14.75;;;6.40;99.90;;;;;;4994718;28;20196;-84
2021/01/15 08:15:43;;;;;;;23.90;15.63;;;6.30;99.90;;;;;;4994759;28;20196;-86
2021/01/15 08:18:10;;;;;;;19.38;15.35;;;6.30;99.90;;;;;;4994325;28;20209;-84
2021/01/15 08:20:36;;;;;;;25.10;17.13;;;6.20;99.90;;;;;;4994701;28;20229;-85
2021/01/15 08:23:03;;;;;;;17.77;14.73;;;6.20;99.90;;;;;;4994672;28;20205;-85
2021/01/15 08:25:31;;;;;;;23.13;15.73;;;6.30;99.90;;;;;;4994475;28;20204;-84
2021/01/15 08:27:57;;;;;;;19.10;14.60;;;6.30;99.90;;;;;;4994528;28;20208;-85
2021/01/15 08:30:26;;;;;;;25.50;15.65;;;6.20;99.90;;;;;;4994409;28;20205;-84
2021/01/15 08:32:52;;;;;;;24.08;15.73;;;6.30;99.90;;;;;;4994416;28;20197;-84
2021/01/15 08:35:24;;;;;;;21.50;16.20;;;6.40;99.90;;;;;;4994747;28;20554;-85
2021/01/15 08:38:01;;;;;;;23.08;15.73;;;6.50;99.90;;;;;;4994432;28;20201;-85
2021/01/15 08:40:28;;;;;;;22.80;16.23;;;6.60;99.90;;;;;;4994428;28;20232;-85
2021/01/15 08:42:56;;;;;;;26.48;17.45;;;6.70;99.90;;;;;;4993463;28;20243;-85
2021/01/15 08:45:27;;;;;;;21.80;16.00;;;6.70;99.90;;;;;;4994136;28;20224;-85
2021/01/15 08:47:56;;;;;;;26.85;16.48;;;6.60;99.90;;;;;;4994216;28;20197;-85
2021/01/15 08:50:22;;;;;;;22.30;15.20;;;6.60;99.90;;;;;;4994301;28;20201;-85
2021/01/15 08:52:49;;;;;;;18.75;13.85;;;6.50;99.90;;;;;;4994096;28;20274;-85
2021/01/15 08:55:19;;;;;;;21.48;16.27;;;6.50;99.90;;;;;;4994254;28;20193;-84
2021/01/15 08:57:47;;;;;;;21.85;15.73;;;6.50;99.90;;;;;;4994185;28;20239;-84
2021/01/15 09:00:15;;;;;;;18.85;14.55;;;6.50;99.90;;;;;;4994094;28;20232;-85
2021/01/15 09:02:45;;;;;;;17.65;14.15;;;6.50;99.90;;;;;;4994200;28;20262;-85
2021/01/15 09:05:13;;;;;;;22.80;16.65;;;6.40;99.90;;;;;;4993910;28;20723;-84
2021/01/15 09:07:43;;;;;;;22.40;15.00;;;6.40;99.90;;;;;;4986932;28;20202;-81
2021/01/15 09:10:12;;;;;;;23.55;16.23;;;6.40;99.90;;;;;;4992147;28;20672;-81
2021/01/15 09:12:41;;;;;;;20.17;15.57;;;6.40;99.90;;;;;;4990490;28;20200;-83
2021/01/15 09:15:18;;;;;;;23.42;14.73;;;6.40;99.90;;;;;;4983983;28;20204;-85
2021/01/15 09:17:46;;;;;;;20.67;14.27;;;6.40;99.90;;;;;;4974163;28;20205;-84
2021/01/15 09:20:14;;;;;;;18.17;12.93;;;6.40;99.90;;;;;;4973715;28;20233;-85
2021/01/15 09:22:40;;;;;;;16.48;12.85;;;6.40;99.90;;;;;;4974397;28;20225;-85
2021/01/15 09:25:08;;;;;;;17.10;12.82;;;6.40;99.90;;;;;;4973959;28;20563;-82
2021/01/15 09:27:34;;;;;;;18.17;14.00;;;6.40;99.90;;;;;;4981954;28;20203;-84
2021/01/15 09:30:00;;;;;;;22.08;13.68;;;6.60;99.90;;;;;;4992790;28;20209;-84
2021/01/15 09:32:26;;;;;;;19.38;14.07;;;6.60;99.90;;;;;;4993455;28;20411;-84
2021/01/15 09:34:53;;;;;;;21.42;13.65;;;6.60;99.90;;;;;;4992518;28;20568;-83
2021/01/15 09:37:20;;;;;;;20.48;14.93;;;6.60;99.90;;;;;;4985640;28;20204;-83
2021/01/15 09:39:46;;;;;;;19.70;14.35;;;6.60;99.90;;;;;;4982235;28;20232;-83
2021/01/15 09:42:14;;;;;;;18.20;13.20;;;6.60;99.90;;;;;;4973999;28;20193;-83
2021/01/15 09:44:41;;;;;;;22.15;13.50;;;6.70;99.90;;;;;;4973297;28;20197;-83
2021/01/15 09:47:07;;;;;;;15.00;12.90;;;6.80;99.90;;;;;;4974030;28;20209;-83
2021/01/15 09:49:34;;;;;;;18.45;12.60;;;6.80;99.90;;;;;;4973381;28;20197;-83
2021/01/15 09:52:03;;;;;;;16.77;12.88;;;6.70;99.90;;;;;;4991837;28;20201;-83
2021/01/15 09:54:29;;;;;;;17.77;13.27;;;6.70;99.90;;;;;;4995678;28;20193;-83
2021/01/15 09:56:56;;;;;;;17.85;12.27;;;6.70;99.90;;;;;;4997266;28;20213;-84
2021/01/15 09:59:22;;;;;;;17.92;14.43;;;6.70;99.90;;;;;;4996993;28;20240;-84
2021/01/15 10:01:49;;;;;;;19.33;12.23;;;6.80;99.90;;;;;;4997253;28;20200;-83
2021/01/15 10:04:16;;;;;;;18.95;13.98;;;6.80;99.90;;;;;;4997127;28;20193;-83
2021/01/15 10:06:45;;;;;;;25.13;15.65;;;6.80;99.90;;;;;;4997260;28;20193;-83
2021/01/15 10:09:14;;;;;;;18.67;13.00;;;6.80;99.90;;;;;;4997403;28;20561;-83
2021/01/15 10:11:42;;;;;;;17.88;12.95;;;6.90;99.90;;;;;;4997095;28;20558;-83
2021/01/15 10:14:10;;;;;;;16.65;12.55;;;6.90;99.90;;;;;;4997138;28;20201;-83
2021/01/15 10:16:37;;;;;;;17.77;12.57;;;6.90;99.90;;;;;;4997121;28;20197;-84
2021/01/15 10:19:04;;;;;;;17.25;12.45;;;7.00;99.90;;;;;;4996870;28;20259;-83
2021/01/15 10:21:32;;;;;;;16.30;13.35;;;7.00;99.90;;;;;;4996830;28;20203;-84
2021/01/15 10:23:59;;;;;;;18.65;12.50;;;7.00;99.90;;;;;;4996746;28;20205;-83
2021/01/15 10:26:28;;;;;;;18.20;11.77;;;7.00;99.90;;;;;;4996606;28;20204;-83
2021/01/15 10:28:59;;;;;;;17.95;11.82;;;7.00;99.90;;;;;;4996631;28;20267;-83
2021/01/15 10:31:26;;;;;;;13.45;10.25;;;7.00;99.90;;;;;;4996574;28;20197;-83
2021/01/15 10:33:53;;;;;;;15.77;11.07;;;7.00;99.90;;;;;;4996638;28;20204;-84
2021/01/15 10:36:19;;;;;;;16.88;11.45;;;7.00;99.90;;;;;;4996473;28;20193;-83
2021/01/15 10:38:46;;;;;;;13.93;11.15;;;7.10;99.90;;;;;;4996630;28;20207;-83
2021/01/15 10:41:12;;;;;;;18.83;12.63;;;7.10;99.90;;;;;;4996451;28;20251;-83
2021/01/15 10:43:39;;;;;;;14.70;10.77;;;7.10;99.90;;;;;;4996583;28;20193;-83
2021/01/15 10:46:06;;;;;;;14.68;10.20;;;7.10;99.90;;;;;;4996396;28;20279;-83
2021/01/15 10:48:32;;;;;;;15.85;10.57;;;7.10;99.90;;;;;;4996446;28;20196;-83
2021/01/15 10:50:58;;;;;;;20.98;11.07;;;7.10;99.90;;;;;;4996295;28;20201;-83
2021/01/15 10:53:25;;;;;;;15.50;11.20;;;7.20;99.90;;;;;;4996314;28;20205;-83
2021/01/15 10:55:51;;;;;;;14.02;10.80;;;7.20;99.90;;;;;;4996599;28;20203;-83
2021/01/15 10:58:18;;;;;;;14.93;9.98;;;7.20;99.90;;;;;;4996161;28;20220;-84
2021/01/15 11:00:45;;;;;;;13.13;10.00;;;7.20;99.90;;;;;;4995994;28;20684;-83
2021/01/15 11:03:11;;;;;;;13.50;10.25;;;7.20;99.90;;;;;;4996280;28;20201;-83
2021/01/15 11:05:37;;;;;;;19.02;11.25;;;7.30;99.90;;;;;;4995037;28;20197;-83
2021/01/15 11:08:04;;;;;;;16.17;9.50;;;7.20;99.90;;;;;;4996301;28;20204;-83
2021/01/15 11:10:30;;;;;;;10.90;9.30;;;7.30;99.90;;;;;;4995980;28;20270;-83
2021/01/15 11:12:57;;;;;;;14.10;10.05;;;7.40;99.90;;;;;;4995791;28;20197;-84
2021/01/15 11:15:24;;;;;;;11.52;9.70;;;7.30;99.90;;;;;;4995889;28;20201;-83
2021/01/15 11:17:51;;;;;;;11.75;10.45;;;7.40;99.90;;;;;;4995937;28;20204;-84
2021/01/15 11:20:20;;;;;;;16.52;10.70;;;7.30;99.90;;;;;;4995720;28;21002;-83
2021/01/15 11:22:46;;;;;;;13.05;10.05;;;7.40;99.90;;;;;;4996103;28;20547;-84
2021/01/15 11:25:14;;;;;;;13.50;10.23;;;7.40;99.90;;;;;;4995724;28;20255;-83
2021/01/15 11:27:42;;;;;;;15.73;11.52;;;7.20;99.90;;;;;;4995623;28;20247;-83
2021/01/15 11:30:09;;;;;;;14.05;10.55;;;7.30;99.90;;;;;;4995689;28;20203;-83
2021/01/15 11:32:38;;;;;;;11.35;9.80;;;7.40;99.90;;;;;;4995548;28;20200;-84
2021/01/15 11:35:06;;;;;;;13.70;9.82;;;7.50;99.90;;;;;;4995384;28;20202;-83
2021/01/15 11:37:35;;;;;;;14.93;10.65;;;7.50;99.90;;;;;;4995532;28;20197;-83
2021/01/15 11:40:02;;;;;;;14.38;9.18;;;7.60;99.90;;;;;;4995284;28;20315;-83
2021/01/15 11:42:28;;;;;;;14.20;10.27;;;7.60;99.90;;;;;;4995286;28;20199;-84
2021/01/15 11:44:54;;;;;;;15.23;10.15;;;7.50;99.90;;;;;;4995137;28;20320;-83
2021/01/15 11:47:21;;;;;;;14.98;9.80;;;7.50;99.90;;;;;;4995566;28;20287;-83
2021/01/15 11:49:47;;;;;;;18.10;10.38;;;7.40;99.90;;;;;;4995079;28;20201;-84
2021/01/15 11:52:14;;;;;;;18.15;10.60;;;7.40;99.90;;;;;;4995206;28;20222;-84
2021/01/15 11:54:40;;;;;;;20.30;10.32;;;7.40;99.90;;;;;;4995601;28;20200;-83
2021/01/15 11:57:07;;;;;;;12.27;10.65;;;7.40;99.90;;;;;;4995256;28;20237;-83
2021/01/15 11:59:33;;;;;;;14.48;10.32;;;7.30;99.90;;;;;;4994934;28;20302;-83
2021/01/15 12:01:59;;;;;;;17.00;11.20;;;7.40;99.90;;;;;;4995060;28;20197;-84
2021/01/15 12:04:26;;;;;;;13.07;10.77;;;7.20;99.90;;;;;;4995007;28;20197;-83
2021/01/15 12:06:52;;;;;;;13.25;9.98;;;7.40;99.90;;;;;;4995010;28;20200;-83
2021/01/15 12:09:20;;;;;;;15.10;11.20;;;7.20;99.90;;;;;;4995133;28;20197;-83
2021/01/15 12:11:46;;;;;;;14.70;10.75;;;7.10;99.90;;;;;;4995019;28;20205;-83
2021/01/15 12:14:13;;;;;;;15.10;10.48;;;7.30;99.90;;;;;;4994842;28;20200;-83
2021/01/15 12:16:39;;;;;;;16.40;10.98;;;7.00;99.90;;;;;;4994708;28;20200;-83
2021/01/15 12:19:07;;;;;;;14.23;10.35;;;7.00;99.90;;;;;;4994545;28;20208;-83
2021/01/15 12:21:33;;;;;;;11.70;10.27;;;7.10;99.90;;;;;;4994682;28;20295;-82
2021/01/15 12:24:03;;;;;;;13.45;10.63;;;7.10;99.90;;;;;;4994695;28;20199;-83
2021/01/15 12:26:31;;;;;;;15.85;11.70;;;6.80;99.90;;;;;;4994598;28;20232;-83
2021/01/15 12:28:57;;;;;;;13.63;11.13;;;6.90;99.90;;;;;;4994329;28;20279;-83
2021/01/15 12:31:23;;;;;;;19.90;11.80;;;7.10;99.90;;;;;;4994707;28;20564;-83
2021/01/15 12:33:50;;;;;;;15.00;10.98;;;7.20;99.90;;;;;;4994393;28;20201;-83
2021/01/15 12:36:16;;;;;;;20.27;11.75;;;7.00;99.90;;;;;;4992594;28;20194;-83
2021/01/15 12:38:42;;;;;;;18.95;12.75;;;7.00;99.90;;;;;;4988678;28;20556;-82
2021/01/15 12:41:08;;;;;;;15.23;10.73;;;7.10;99.90;;;;;;4985801;28;20220;-82
2021/01/15 12:43:35;;;;;;;16.23;13.32;;;6.90;99.90;;;;;;4980967;28;20194;-83
2021/01/15 12:46:02;;;;;;;21.50;11.32;;;7.00;99.90;;;;;;4974426;28;20279;-83
2021/01/15 12:48:28;;;;;;;19.60;11.35;;;7.20;99.90;;;;;;4974910;28;20213;-83